Time;durP1;ratioP1;P1;durP2;ratioP2;P2;SDS_P1;SDS_P2;PMS_P1;PMS_P2;Temp;Humidity;BMP_temperature;BMP_pressure;BME280_temperature;BME280_humidity;BME280_pressure;Samples;Min_cycle;Max_cycle;Signal;HPM_P1;HPM_P2
2021/03/05 00:00:56;;;;;;;69.88;23.92;;;;;;;1.31;100.00;97824.47;5029271;28;20068;-77
2021/03/05 00:03:22;;;;;;;82.75;25.42;;;;;;;1.38;100.00;97818.94;5029239;28;20056;-75
2021/03/05 00:05:49;;;;;;;74.85;24.63;;;;;;;1.45;100.00;97840.88;5031115;28;20069;-76
2021/03/05 00:08:16;;;;;;;70.93;23.67;;;;;;;1.45;100.00;97835.53;5030232;28;20492;-75
2021/03/05 00:10:44;;;;;;;81.07;24.67;;;;;;;1.41;100.00;97834.44;5030255;28;20471;-77
2021/03/05 00:13:11;;;;;;;78.80;25.10;;;;;;;1.23;100.00;97828.41;5030529;28;20120;-78
2021/03/05 00:15:42;;;;;;;75.55;23.65;;;;;;;1.37;100.00;97844.00;5030320;28;20161;-75
2021/03/05 00:18:09;;;;;;;70.72;24.17;;;;;;;1.33;100.00;97829.53;5029240;28;20152;-77
2021/03/05 00:20:40;;;;;;;69.20;23.35;;;;;;;1.33;100.00;97835.69;5029907;28;20049;-77
2021/03/05 00:23:06;;;;;;;65.38;23.05;;;;;;;1.31;100.00;97824.47;5028865;28;20048;-76
2021/03/05 00:25:35;;;;;;;73.38;23.35;;;;;;;1.24;100.00;97823.84;5030203;28;20058;-76
2021/03/05 00:28:02;;;;;;;77.35;24.20;;;;;;;1.22;100.00;97833.97;5029421;28;20049;-77
2021/03/05 00:30:28;;;;;;;72.30;24.00;;;;;;;1.30;100.00;97838.03;5029517;28;20420;-75
2021/03/05 00:32:54;;;;;;;82.45;25.45;;;;;;;1.25;100.00;97836.94;5027910;28;20062;-75
2021/03/05 00:35:21;;;;;;;95.38;27.80;;;;;;;1.30;100.00;97835.38;5012388;28;20497;-76
2021/03/05 00:37:50;;;;;;;94.18;29.60;;;;;;;1.22;100.00;97832.09;5031216;28;20045;-76
2021/03/05 00:40:19;;;;;;;92.97;26.40;;;;;;;1.23;100.00;97835.59;5032725;28;20041;-76
2021/03/05 00:42:46;;;;;;;82.78;26.23;;;;;;;1.22;100.00;97833.97;5031216;28;20052;-76
2021/03/05 00:45:15;;;;;;;83.20;24.58;;;;;;;1.20;100.00;97836.06;5032677;28;20046;-76
2021/03/05 00:47:43;;;;;;;72.13;23.05;;;;;;;1.19;100.00;97837.13;5032533;28;20117;-75
2021/03/05 00:50:10;;;;;;;73.53;23.42;;;;;;;1.20;100.00;97836.06;5031242;28;20048;-75
2021/03/05 00:52:37;;;;;;;62.80;21.10;;;;;;;1.15;100.00;97836.03;5032027;28;20053;-75
2021/03/05 00:55:06;;;;;;;68.45;22.15;;;;;;;1.15;100.00;97842.16;5032807;28;20485;-77
2021/03/05 00:57:33;;;;;;;70.78;23.02;;;;;;;1.14;100.00;97859.22;5032614;28;20049;-77
2021/03/05 00:59:59;;;;;;;75.25;22.90;;;;;;;1.15;100.00;97846.69;5032538;28;20041;-77
2021/03/05 01:02:28;;;;;;;68.97;22.98;;;;;;;1.19;100.00;97848.59;5032540;28;20041;-76
2021/03/05 01:04:55;;;;;;;71.18;22.65;;;;;;;1.12;100.00;97856.00;5031207;28;20665;-76
2021/03/05 01:07:21;;;;;;;69.47;22.33;;;;;;;1.14;100.00;97861.06;5014922;28;20049;-76
2021/03/05 01:09:47;;;;;;;63.72;21.45;;;;;;;1.08;100.00;97854.88;5030994;28;20060;-76
2021/03/05 01:12:13;;;;;;;66.88;22.25;;;;;;;1.17;100.00;97848.03;5032172;28;20493;-75
2021/03/05 01:14:39;;;;;;;62.45;21.13;;;;;;;1.13;100.00;97854.94;5030804;28;20061;-76
2021/03/05 01:17:06;;;;;;;61.95;21.92;;;;;;;1.17;100.00;97850.72;5031956;28;20068;-77
2021/03/05 01:19:33;;;;;;;72.05;23.02;;;;;;;1.24;100.00;97850.50;5032851;28;20049;-75
2021/03/05 01:21:59;;;;;;;57.53;20.55;;;;;;;1.32;100.00;97846.63;5032782;28;20045;-76
2021/03/05 01:24:25;;;;;;;62.63;22.38;;;;;;;1.30;100.00;97843.38;5032683;28;20053;-75
2021/03/05 01:26:52;;;;;;;50.90;18.85;;;;;;;1.30;100.00;97843.38;5031521;28;20120;-77
2021/03/05 01:29:18;;;;;;;62.95;21.05;;;;;;;1.35;100.00;97848.75;5034460;28;20132;-76
2021/03/05 01:31:45;;;;;;;58.53;20.60;;;;;;;1.33;100.00;97833.03;5033739;28;20295;-76
2021/03/05 01:34:13;;;;;;;67.35;22.17;;;;;;;1.38;100.00;97837.59;5032858;28;20077;-73
2021/03/05 01:36:40;;;;;;;61.80;21.30;;;;;;;1.36;100.00;97829.06;5033356;28;20061;-76
2021/03/05 01:39:07;;;;;;;68.18;22.60;;;;;;;1.32;100.00;97830.63;5033523;28;20045;-77
2021/03/05 01:41:37;;;;;;;75.10;22.15;;;;;;;1.38;100.00;97837.59;5014764;28;20069;-76
2021/03/05 01:44:06;;;;;;;89.38;24.98;;;;;;;1.35;100.00;97844.25;5032084;28;20047;-75
2021/03/05 01:46:34;;;;;;;78.60;23.90;;;;;;;1.33;100.00;97840.22;5031970;28;20037;-75
2021/03/05 01:49:01;;;;;;;77.78;24.85;;;;;;;1.41;100.00;97842.44;5030978;28;20046;-76
2021/03/05 01:51:36;;;;;;;73.82;24.17;;;;;;;1.39;100.00;97841.88;5036300;28;20041;-75
2021/03/05 01:54:02;;;;;;;74.82;23.73;;;;;;;1.35;100.00;97848.75;5043802;28;20455;-76
2021/03/05 01:56:39;;;;;;;87.03;24.80;;;;;;;1.33;100.00;97850.88;5041530;28;20042;-75
2021/03/05 01:59:08;;;;;;;76.57;24.17;;;;;;;1.34;100.00;97839.16;5023012;28;20067;-74
2021/03/05 02:01:35;;;;;;;91.75;25.98;;;;;;;1.27;100.00;97842.00;5023778;28;20049;-75
2021/03/05 02:04:08;;;;;;;76.15;23.38;;;;;;;1.35;100.00;97846.91;5004357;28;20125;-76
2021/03/05 02:06:43;;;;;;;89.35;22.92;;;;;;;1.30;100.00;97848.72;5025878;28;20106;-75
2021/03/05 02:09:10;;;;;;;90.57;21.90;;;;;;;1.27;100.00;97858.00;5037874;28;20043;-75
2021/03/05 02:11:37;;;;;;;93.65;22.08;;;;;;;1.17;100.00;97848.03;5023068;28;20145;-76
2021/03/05 02:14:08;;;;;;;87.68;21.50;;;;;;;1.27;100.00;97844.69;5016209;28;20041;-77
2021/03/05 02:16:53;;;;;;;65.65;20.10;;;;;;;1.35;100.00;97856.75;5016210;28;20050;-76
2021/03/05 02:20:00;;;;;;;65.68;18.95;;;;;;;1.25;100.00;97847.63;5024507;28;20042;-77
2021/03/05 02:22:47;;;;;;;59.88;19.15;;;;;;;1.33;100.00;97851.69;5029787;28;20065;-77
2021/03/05 02:25:48;;;;;;;61.47;18.10;;;;;;;1.29;100.00;97849.78;5013986;28;20046;-76
2021/03/05 02:28:45;;;;;;;61.88;18.42;;;;;;;1.35;100.00;97849.56;5013621;28;20042;-77
2021/03/05 02:31:30;;;;;;;72.15;18.83;;;;;;;1.35;100.00;97856.75;5014059;28;20045;-77
2021/03/05 02:34:02;;;;;;;73.05;18.98;;;;;;;1.29;100.00;97844.44;5013899;28;20042;-78
2021/03/05 02:36:44;;;;;;;79.53;18.45;;;;;;;1.20;100.00;97855.56;5013423;28;20046;-77
2021/03/05 02:39:18;;;;;;;73.15;18.75;;;;;;;1.27;100.00;97861.50;5012739;28;20053;-78
2021/03/05 02:41:48;;;;;;;59.78;17.30;;;;;;;1.32;100.00;97859.97;5012112;28;20050;-76
2021/03/05 02:44:21;;;;;;;55.33;17.63;;;;;;;1.25;100.00;97855.59;5025730;28;20048;-76
2021/03/05 02:46:47;;;;;;;52.15;16.60;;;;;;;1.25;100.00;97862.81;5032419;28;20037;-75
2021/03/05 02:49:19;;;;;;;53.80;16.13;;;;;;;1.21;100.00;97870.47;5032308;28;20128;-77
2021/03/05 02:51:47;;;;;;;61.13;16.98;;;;;;;1.18;100.00;97881.66;5031773;28;20055;-77
2021/03/05 02:54:16;;;;;;;56.90;17.00;;;;;;;1.26;100.00;97881.19;5030955;28;20109;-77
2021/03/05 02:56:45;;;;;;;52.05;16.98;;;;;;;1.21;100.00;97881.13;5029157;28;20047;-76
2021/03/05 02:59:13;;;;;;;56.92;17.00;;;;;;;1.23;100.00;97883.56;5029091;28;20038;-77
2021/03/05 03:01:45;;;;;;;45.70;16.25;;;;;;;1.30;100.00;97894.03;5030230;28;20437;-77
2021/03/05 03:04:13;;;;;;;47.47;15.77;;;;;;;1.28;100.00;97902.31;5029078;28;20049;-76
2021/03/05 03:06:41;;;;;;;48.17;16.48;;;;;;;1.25;100.00;97902.78;5031065;28;20048;-77
2021/03/05 03:09:09;;;;;;;45.75;14.52;;;;;;;1.27;100.00;97898.00;5030156;28;20053;-77
2021/03/05 03:11:39;;;;;;;40.17;14.05;;;;;;;1.24;100.00;97893.97;5030259;28;20061;-77
2021/03/05 03:14:06;;;;;;;34.35;13.80;;;;;;;1.31;100.00;97890.34;5028386;28;20408;-77
2021/03/05 03:16:35;;;;;;;32.25;11.55;;;;;;;1.27;100.00;97896.16;5029942;28;20099;-76
2021/03/05 03:19:04;;;;;;;34.92;11.85;;;;;;;1.30;100.00;97899.38;5030625;28;20041;-77
2021/03/05 03:21:30;;;;;;;25.85;10.40;;;;;;;1.31;100.00;97899.16;5031238;28;20049;-77
2021/03/05 03:23:56;;;;;;;29.90;10.85;;;;;;;1.26;100.00;97894.53;5031261;28;20638;-78
2021/03/05 03:26:23;;;;;;;29.88;11.00;;;;;;;1.37;100.00;97905.34;5029787;28;20096;-77
2021/03/05 03:28:50;;;;;;;30.38;10.93;;;;;;;1.35;100.00;97902.09;5030618;28;20663;-78
2021/03/05 03:31:17;;;;;;;31.02;12.15;;;;;;;1.33;100.00;97909.53;5028515;28;20439;-77
2021/03/05 03:33:45;;;;;;;34.53;12.40;;;;;;;1.31;100.00;97915.16;5030834;28;20049;-77
2021/03/05 03:36:13;;;;;;;32.30;11.57;;;;;;;1.20;100.00;97914.22;5030492;28;20430;-77
2021/03/05 03:38:40;;;;;;;32.80;12.15;;;;;;;1.21;100.00;97920.34;5033373;28;20045;-78
2021/03/05 03:41:06;;;;;;;36.92;12.95;;;;;;;1.24;100.00;97923.31;5033738;28;20408;-77
2021/03/05 03:43:32;;;;;;;30.75;12.82;;;;;;;1.23;100.00;97928.91;5033534;28;20045;-78
2021/03/05 03:45:59;;;;;;;32.20;12.30;;;;;;;1.22;100.00;97925.44;5032524;28;20056;-78
2021/03/05 03:48:27;;;;;;;30.73;11.30;;;;;;;1.20;100.00;97922.22;5034554;28;20107;-78
2021/03/05 03:51:06;;;;;;;31.45;12.35;;;;;;;1.19;100.00;97930.44;5034787;28;20080;-78
2021/03/05 03:53:37;;;;;;;33.15;11.55;;;;;;;1.14;100.00;97930.38;5035529;28;20047;-78
2021/03/05 03:56:07;;;;;;;37.00;13.32;;;;;;;1.16;100.00;97929.06;5036622;28;20046;-77
2021/03/05 03:58:34;;;;;;;42.60;13.43;;;;;;;1.14;100.00;97933.03;5034582;28;20390;-77
2021/03/05 04:01:07;;;;;;;40.78;14.65;;;;;;;1.13;100.00;97942.91;5034064;28;20098;-77
2021/03/05 04:03:37;;;;;;;42.25;14.38;;;;;;;1.13;100.00;97940.25;5012325;28;20203;-76
2021/03/05 04:06:06;;;;;;;40.95;13.90;;;;;;;1.16;100.00;97945.06;5028169;28;20038;-75
2021/03/05 04:08:35;;;;;;;41.17;14.48;;;;;;;1.15;100.00;97948.81;5029901;28;20047;-76
2021/03/05 04:11:01;;;;;;;43.45;13.90;;;;;;;1.20;100.00;97946.22;5033795;28;20041;-76
2021/03/05 04:13:29;;;;;;;44.83;14.80;;;;;;;1.20;100.00;97956.06;5036621;28;20049;-76
2021/03/05 04:15:56;;;;;;;46.25;15.32;;;;;;;1.29;100.00;97967.94;5053232;23;20041;-79
2021/03/05 04:18:29;;;;;;;47.03;17.05;;;;;;;1.29;100.00;97957.25;5040599;28;20420;-81
2021/03/05 04:20:59;;;;;;;47.85;16.23;;;;;;;1.30;100.00;97966.84;5037047;28;20064;-80
2021/03/05 04:23:26;;;;;;;42.42;14.98;;;;;;;1.30;100.00;97968.72;5051411;28;20128;-79
2021/03/05 04:25:53;;;;;;;49.20;15.77;;;;;;;1.20;100.00;97972.06;5048876;28;20037;-80
2021/03/05 04:28:19;;;;;;;47.83;15.23;;;;;;;1.19;100.00;97975.75;4987160;28;20577;-79
2021/03/05 04:30:45;;;;;;;45.50;15.27;;;;;;;1.20;100.00;97975.53;5037463;28;20416;-81
2021/03/05 04:33:11;;;;;;;51.08;16.55;;;;;;;1.18;100.00;97980.31;5055718;28;20052;-80
2021/03/05 04:35:37;;;;;;;45.20;15.60;;;;;;;1.18;100.00;97985.66;5040013;28;20057;-79
2021/03/05 04:38:03;;;;;;;47.00;14.73;;;;;;;1.23;100.00;97998.22;5057348;28;20063;-80
2021/03/05 04:40:29;;;;;;;41.90;14.18;;;;;;;1.21;100.00;97989.69;5039527;28;20040;-81
2021/03/05 04:42:55;;;;;;;40.92;14.38;;;;;;;1.21;100.00;98003.78;5057554;28;20048;-80
2021/03/05 04:45:22;;;;;;;45.45;14.18;;;;;;;1.18;100.00;98004.31;5055978;28;20132;-81
2021/03/05 04:47:48;;;;;;;38.42;12.60;;;;;;;1.23;100.00;98006.22;5038250;28;20106;-80
2021/03/05 04:50:14;;;;;;;39.92;13.20;;;;;;;1.20;100.00;98012.88;5042612;28;20103;-80
2021/03/05 04:52:40;;;;;;;41.40;14.43;;;;;;;1.18;100.00;98009.66;5036100;28;20056;-80
2021/03/05 04:55:07;;;;;;;39.95;13.98;;;;;;;1.15;100.00;98020.78;5004381;28;20061;-80
2021/03/05 04:57:34;;;;;;;40.45;14.10;;;;;;;1.17;100.00;98012.53;5037167;28;20037;-80
2021/03/05 05:00:00;;;;;;;45.45;15.00;;;;;;;1.20;100.00;98010.19;5036261;28;20596;-80
2021/03/05 05:02:26;;;;;;;49.42;15.60;;;;;;;1.22;100.00;98018.75;5001310;28;20107;-80
2021/03/05 05:04:53;;;;;;;51.58;16.80;;;;;;;1.17;100.00;98025.88;5020403;28;20052;-79
2021/03/05 05:07:19;;;;;;;47.15;15.77;;;;;;;1.12;100.00;98026.59;5036100;28;20050;-80
2021/03/05 05:09:45;;;;;;;50.70;15.85;;;;;;;1.13;100.00;98036.22;5036571;28;20229;-81
2021/03/05 05:12:11;;;;;;;34.92;11.85;;;;;;;1.04;100.00;98035.00;5050544;28;20056;-81
2021/03/05 05:14:38;;;;;;;27.90;10.75;;;;;;;0.96;100.00;98047.94;5056244;28;20132;-81
2021/03/05 05:17:04;;;;;;;24.90;9.52;;;;;;;0.88;100.00;98041.16;5044658;28;20045;-81
2021/03/05 05:19:31;;;;;;;27.67;9.50;;;;;;;0.90;100.00;98041.75;5021427;28;20045;-80
2021/03/05 05:21:57;;;;;;;25.55;9.60;;;;;;;0.92;100.00;98054.81;5026516;28;20140;-80
2021/03/05 05:24:23;;;;;;;25.88;9.70;;;;;;;0.87;100.00;98060.06;5017621;28;20053;-79
2021/03/05 05:26:51;;;;;;;31.50;9.70;;;;;;;0.88;100.00;98059.81;5047315;28;20047;-81
2021/03/05 05:29:19;;;;;;;32.50;10.98;;;;;;;0.90;100.00;98057.72;5038903;28;20037;-82
2021/03/05 05:31:45;;;;;;;30.88;10.88;;;;;;;0.89;100.00;98066.75;5050611;28;20059;-80
2021/03/05 05:34:15;;;;;;;32.33;11.63;;;;;;;0.84;100.00;98066.69;5050382;28;20111;-80
2021/03/05 05:36:41;;;;;;;32.08;12.32;;;;;;;0.88;100.00;98075.03;5015875;28;20060;-80
2021/03/05 05:39:07;;;;;;;32.13;12.43;;;;;;;0.79;100.00;98079.13;5040642;28;20049;-81
2021/03/05 05:41:34;;;;;;;39.05;12.70;;;;;;;0.79;100.00;98077.25;5037299;28;20053;-81
2021/03/05 05:44:03;;;;;;;34.47;13.23;;;;;;;0.83;100.00;98085.56;5032751;28;20041;-80
2021/03/05 05:46:30;;;;;;;33.50;12.98;;;;;;;0.85;100.00;98089.59;5034407;28;20037;-80
2021/03/05 05:48:57;;;;;;;38.95;13.60;;;;;;;0.86;100.00;98093.91;5018125;28;20137;-81
2021/03/05 05:51:27;;;;;;;38.53;13.77;;;;;;;0.78;100.00;98104.94;5020184;28;20041;-81
2021/03/05 05:53:57;;;;;;;36.03;14.45;;;;;;;0.80;100.00;98102.06;5036231;28;20132;-80
2021/03/05 05:56:24;;;;;;;37.50;14.40;;;;;;;0.79;100.00;98103.91;5034961;28;20042;-81
2021/03/05 05:58:51;;;;;;;35.83;15.73;;;;;;;0.86;100.00;98115.22;5017308;28;20058;-81
2021/03/05 06:01:17;;;;;;;30.85;13.75;;;;;;;0.81;100.00;98123.13;5032967;28;20059;-81
2021/03/05 06:03:44;;;;;;;39.05;14.43;;;;;;;0.78;100.00;98115.59;5035171;28;20045;-81
2021/03/05 06:06:14;;;;;;;32.20;12.90;;;;;;;0.79;100.00;98127.06;5049086;28;20049;-81
2021/03/05 06:08:59;;;;;;;31.75;13.38;;;;;;;0.84;100.00;98132.50;5056473;28;20100;-81
2021/03/05 06:11:37;;;;;;;41.40;14.93;;;;;;;0.76;100.00;98136.34;5056843;28;20148;-80
2021/03/05 06:14:05;;;;;;;33.58;14.65;;;;;;;0.76;100.00;98139.03;5036777;28;20053;-81
2021/03/05 06:16:32;;;;;;;33.95;14.13;;;;;;;0.73;100.00;98136.84;5032364;28;20554;-80
2021/03/05 06:19:00;;;;;;;35.75;13.50;;;;;;;0.79;100.00;98138.53;5044595;28;20385;-80
2021/03/05 06:21:39;;;;;;;31.23;13.45;;;;;;;0.84;100.00;98153.81;5042194;28;20049;-80
2021/03/05 06:24:08;;;;;;;29.58;12.35;;;;;;;0.76;100.00;98148.88;5018326;28;20055;-79
2021/03/05 06:26:51;;;;;;;28.45;12.68;;;;;;;0.78;100.00;98160.91;5037621;28;20051;-80
2021/03/05 06:29:22;;;;;;;27.05;12.90;;;;;;;0.77;100.00;98167.28;5054350;28;20081;-79
2021/03/05 06:31:53;;;;;;;30.27;12.90;;;;;;;0.75;100.00;98169.38;5056645;28;20523;-80
2021/03/05 06:34:20;;;;;;;30.35;12.38;;;;;;;0.79;100.00;98170.53;5055856;28;20057;-80
2021/03/05 06:37:01;;;;;;;25.73;11.13;;;;;;;0.75;100.00;98168.59;5056136;28;20052;-81
2021/03/05 06:39:28;;;;;;;25.70;11.90;;;;;;;0.77;100.00;98185.13;5056048;28;20416;-80
2021/03/05 06:42:07;;;;;;;23.38;10.75;;;;;;;0.73;100.00;98197.28;5038778;28;20111;-80
2021/03/05 06:44:35;;;;;;;27.25;11.77;;;;;;;0.69;100.00;98196.97;5036428;28;20132;-79
2021/03/05 06:47:15;;;;;;;26.88;11.32;;;;;;;0.77;100.00;98201.94;5052617;28;20037;-79
2021/03/05 06:49:43;;;;;;;25.27;10.48;;;;;;;0.77;100.00;98207.25;5043842;28;20543;-80
2021/03/05 06:52:17;;;;;;;25.60;11.02;;;;;;;0.81;100.00;98211.06;5034092;28;20053;-80
2021/03/05 06:54:45;;;;;;;26.77;10.55;;;;;;;0.85;100.00;98217.50;5052579;28;20045;-81
2021/03/05 06:57:14;;;;;;;23.02;11.35;;;;;;;0.98;100.00;98217.22;5054620;28;20148;-81
2021/03/05 06:59:44;;;;;;;20.45;9.23;;;;;;;1.02;100.00;98225.56;5056069;28;20488;-81
2021/03/05 07:02:16;;;;;;;21.92;9.52;;;;;;;1.04;100.00;98232.28;5037847;28;20139;-81
2021/03/05 07:04:51;;;;;;;21.70;9.70;;;;;;;0.89;100.00;98218.66;5055482;28;20055;-81
2021/03/05 07:07:18;;;;;;;17.92;8.90;;;;;;;0.93;100.00;98243.78;5055641;28;20041;-80
2021/03/05 07:09:47;;;;;;;21.17;9.13;;;;;;;0.94;100.00;98237.44;5054836;28;20525;-80
2021/03/05 07:12:15;;;;;;;19.02;9.30;;;;;;;0.92;100.00;98249.38;5055527;28;20055;-82
2021/03/05 07:14:44;;;;;;;14.85;7.82;;;;;;;0.98;100.00;98248.44;5052407;28;20123;-81
2021/03/05 07:17:11;;;;;;;16.98;8.18;;;;;;;1.00;100.00;98251.66;5052924;28;20056;-81
2021/03/05 07:19:38;;;;;;;19.40;8.40;;;;;;;0.97;100.00;98254.78;5059047;28;20049;-81
2021/03/05 07:22:07;;;;;;;21.10;7.78;;;;;;;0.90;100.00;98254.94;5007425;28;20060;-81
2021/03/05 07:24:40;;;;;;;18.80;8.55;;;;;;;1.04;100.00;98260.78;5036545;28;20049;-82
2021/03/05 07:27:08;;;;;;;18.65;8.20;;;;;;;1.03;100.00;98267.19;5056921;28;20128;-81
2021/03/05 07:29:44;;;;;;;21.83;8.75;;;;;;;1.05;100.00;98267.75;5048531;28;20056;-81
2021/03/05 07:32:21;;;;;;;16.85;8.35;;;;;;;1.13;100.00;98262.03;5028257;28;20057;-80
2021/03/05 07:35:00;;;;;;;18.85;9.25;;;;;;;1.17;100.00;98276.50;5054388;28;20071;-81
2021/03/05 07:37:35;;;;;;;23.38;9.50;;;;;;;1.18;100.00;98275.47;5058714;28;20048;-81
2021/03/05 07:40:06;;;;;;;17.95;8.90;;;;;;;1.13;100.00;98288.69;5038494;28;20045;-80
2021/03/05 07:42:33;;;;;;;19.30;8.93;;;;;;;1.18;100.00;98288.78;5034574;28;20053;-81
2021/03/05 07:45:02;;;;;;;18.00;8.32;;;;;;;1.15;100.00;98289.25;5017075;28;20046;-80
2021/03/05 07:47:32;;;;;;;17.33;8.15;;;;;;;1.09;100.00;98283.03;5016487;28;20041;-81
2021/03/05 07:50:00;;;;;;;19.60;8.68;;;;;;;1.29;100.00;98293.28;5034761;28;20053;-81
2021/03/05 07:52:27;;;;;;;16.42;7.47;;;;;;;1.06;100.00;98301.34;5018282;28;20072;-80
2021/03/05 07:54:53;;;;;;;17.55;8.00;;;;;;;0.90;100.00;98296.78;5036163;28;20045;-81
2021/03/05 07:57:23;;;;;;;19.13;7.65;;;;;;;0.70;100.00;98307.03;5049496;28;20041;-79
2021/03/05 07:59:51;;;;;;;20.77;8.50;;;;;;;0.66;100.00;98306.69;5063466;28;20036;-81
2021/03/05 08:02:26;;;;;;;21.00;8.88;;;;;;;0.65;100.00;98299.72;5039780;28;20055;-81
2021/03/05 08:04:53;;;;;;;21.33;9.50;;;;;;;0.73;100.00;98315.34;5034700;28;20065;-82
2021/03/05 08:07:21;;;;;;;18.30;9.02;;;;;;;0.71;100.00;98321.97;5034599;28;20056;-82
2021/03/05 08:09:48;;;;;;;21.48;9.15;;;;;;;0.79;100.00;98322.41;5052048;28;20041;-82
2021/03/05 08:12:25;;;;;;;25.02;9.02;;;;;;;0.99;100.00;98330.81;5035913;28;20120;-80
2021/03/05 08:15:12;;;;;;;17.92;8.98;;;;;;;1.09;100.00;98333.69;5019709;28;20053;-82
2021/03/05 08:17:41;;;;;;;17.50;7.97;;;;;;;1.14;100.00;98330.28;5043977;28;20049;-82
2021/03/05 08:20:09;;;;;;;18.17;5.65;;;;;;;0.85;100.00;98323.34;5059213;23;20049;-81
2021/03/05 08:23:04;;;;;;;11.73;5.40;;;;;;;0.73;100.00;98323.34;5078308;28;20047;-81
2021/03/05 08:25:47;;;;;;;13.10;5.47;;;;;;;0.55;100.00;98350.13;5077829;28;20127;-83
2021/03/05 08:28:38;;;;;;;12.70;6.18;;;;;;;0.41;100.00;98338.09;5062465;28;20139;-80
2021/03/05 08:31:33;;;;;;;14.90;6.22;;;;;;;0.51;100.00;98348.97;5062415;28;20045;-81
2021/03/05 08:34:28;;;;;;;20.55;6.88;;;;;;;0.75;100.00;98355.88;5056230;28;20046;-82
2021/03/05 08:36:58;;;;;;;15.32;6.00;;;;;;;0.82;100.00;98366.44;5037144;28;20061;-80
2021/03/05 08:39:29;;;;;;;14.02;6.13;;;;;;;0.88;100.00;98373.50;5043321;28;20048;-81
2021/03/05 08:42:35;;;;;;;14.23;5.80;;;;;;;0.92;100.00;98375.47;5043426;28;20123;-82
2021/03/05 08:45:29;;;;;;;12.73;3.95;;;;;;;0.78;100.00;98375.91;5059680;28;20061;-82
2021/03/05 08:47:58;;;;;;;11.10;4.68;;;;;;;0.94;100.00;98377.88;5041089;28;20045;-82
2021/03/05 08:50:32;;;;;;;10.27;4.35;;;;;;;1.09;100.00;98389.66;5043184;28;20055;-82
2021/03/05 08:53:14;;;;;;;9.20;3.90;;;;;;;1.11;100.00;98384.91;5050469;28;20069;-83
2021/03/05 08:55:42;;;;;;;9.15;3.67;;;;;;;1.24;100.00;98394.47;5061904;28;20041;-82
2021/03/05 08:58:18;;;;;;;6.75;3.40;;;;;;;1.31;100.00;98402.38;5042776;28;20098;-81
2021/03/05 09:00:44;;;;;;;9.57;3.97;;;;;;;1.25;100.00;98393.44;5061430;28;20045;-81
2021/03/05 09:03:17;;;;;;;7.65;3.15;;;;;;;1.04;100.00;98402.88;5066031;28;20056;-83
2021/03/05 09:05:47;;;;;;;7.63;3.30;;;;;;;1.22;100.00;98400.06;5064687;28;20075;-82
2021/03/05 09:08:22;;;;;;;8.07;3.00;;;;;;;1.57;100.00;98402.63;5032226;28;20049;-81
2021/03/05 09:11:00;;;;;;;7.15;2.80;;;;;;;1.58;100.00;98411.44;5024273;28;20042;-82
2021/03/05 09:13:34;;;;;;;8.40;3.35;;;;;;;1.81;100.00;98414.00;5040117;28;20068;-81
2021/03/05 09:16:04;;;;;;;;;;;;;;;2.05;100.00;98417.34;5054998;28;20040;-82
2021/03/05 09:18:35;;;;;;;7.03;3.00;;;;;;;1.84;100.00;98405.50;5045726;28;19927;-81
2021/03/05 09:21:07;;;;;;;6.20;2.80;;;;;;;2.32;100.00;98413.03;5051689;28;20045;-82
2021/03/05 09:23:36;;;;;;;6.70;3.00;;;;;;;2.37;100.00;98408.56;5041939;28;20053;-82
2021/03/05 09:26:05;;;;;;;6.65;2.42;;;;;;;2.10;100.00;98414.78;5041027;28;20068;-80
2021/03/05 09:28:35;;;;;;;5.45;2.35;;;;;;;2.15;100.00;98406.84;5040972;28;20148;-81
2021/03/05 09:31:02;;;;;;;5.43;2.22;;;;;;;2.22;100.00;98405.63;5059496;28;20102;-82
2021/03/05 09:33:48;;;;;;;7.10;2.05;;;;;;;2.76;100.00;98420.09;5044577;28;20120;-83
2021/03/05 09:36:17;;;;;;;6.85;2.55;;;;;;;2.81;100.00;98416.72;5069029;28;20047;-84
2021/03/05 09:38:53;;;;;;;6.40;1.88;;;;;;;2.50;100.00;98421.56;5063756;28;20505;-81
2021/03/05 09:41:24;;;;;;;4.72;2.25;;;;;;;2.83;100.00;98414.59;5049188;28;20041;-83
2021/03/05 09:43:59;;;;;;;5.95;1.63;;;;;;;2.55;100.00;98420.06;5049524;28;20053;-82
2021/03/05 09:46:31;;;;;;;3.85;1.70;;;;;;;3.17;100.00;98420.69;5049959;28;20093;-83
2021/03/05 09:49:20;;;;;;;6.07;1.40;;;;;;;3.53;100.00;98425.41;5032254;28;20050;-81
2021/03/05 09:51:47;;;;;;;5.97;1.20;;;;;;;3.38;100.00;98420.66;5031727;28;20073;-83
2021/03/05 09:54:13;;;;;;;4.80;1.40;;;;;;;3.95;100.00;98420.25;5044039;28;20053;-81
2021/03/05 09:56:45;;;;;;;2.88;1.20;;;;;;;4.59;100.00;98426.44;5040778;28;20045;-82
2021/03/05 09:59:13;;;;;;;4.03;1.50;;;;;;;5.11;100.00;98424.63;5037676;28;20046;-81
2021/03/05 10:01:43;;;;;;;2.28;1.10;;;;;;;6.23;100.00;98422.06;5027204;28;20108;-82
2021/03/05 10:04:12;;;;;;;4.47;1.30;;;;;;;6.92;81.38;98424.19;5027046;28;20083;-82
2021/03/05 10:06:40;;;;;;;4.32;1.30;;;;;;;5.41;77.36;98430.16;5027494;28;20497;-81
2021/03/05 10:09:08;;;;;;;3.28;1.40;;;;;;;6.98;80.59;98425.81;5043154;28;20515;-81
2021/03/05 10:11:38;;;;;;;4.75;1.33;;;;;;;7.55;67.40;98449.63;5024735;28;20112;-83
2021/03/05 10:14:21;;;;;;;4.93;1.30;;;;;;;8.87;66.48;98449.66;5042094;28;20108;-82
2021/03/05 10:16:48;;;;;;;3.10;1.02;;;;;;;8.98;58.62;98445.78;5048129;22;20068;-76
2021/03/05 10:19:16;;;;;;;2.63;0.90;;;;;;;7.99;53.45;98444.31;5044191;28;20059;-75
2021/03/05 10:21:52;;;;;;;4.03;1.00;;;;;;;7.07;58.79;98464.56;5031028;28;20048;-75
2021/03/05 10:24:20;;;;;;;4.55;0.75;;;;;;;5.56;60.83;98465.13;5030672;28;20045;-75
2021/03/05 10:27:21;;;;;;;2.95;1.00;;;;;;;4.19;64.37;98459.88;5028945;28;20045;-75
2021/03/05 10:29:49;;;;;;;2.55;0.90;;;;;;;4.41;66.24;98474.00;5031932;28;20090;-75
2021/03/05 10:32:17;;;;;;;2.33;0.90;;;;;;;7.10;64.42;98469.41;5016305;28;20060;-75
2021/03/05 10:34:46;;;;;;;2.13;0.90;;;;;;;7.41;56.78;98464.75;5010603;28;20353;-74
2021/03/05 10:37:13;;;;;;;3.58;1.13;;;;;;;8.29;50.03;98465.72;5010318;28;20046;-75
2021/03/05 10:39:40;;;;;;;6.18;1.40;;;;;;;7.79;50.29;98464.09;5010587;28;20053;-73
2021/03/05 10:42:10;;;;;;;2.33;1.00;;;;;;;9.72;47.73;98470.38;5009978;28;20050;-75
2021/03/05 10:44:37;;;;;;;3.92;0.90;;;;;;;11.01;47.96;98478.81;5008764;28;20049;-75
2021/03/05 10:47:06;;;;;;;2.05;0.80;;;;;;;7.47;46.07;98482.53;5008349;28;20046;-74
2021/03/05 10:49:32;;;;;;;2.75;0.90;;;;;;;6.04;55.23;98495.44;5010569;28;20044;-75
2021/03/05 10:51:59;;;;;;;4.05;1.05;;;;;;;5.10;62.43;98478.56;5011954;28;20045;-75
2021/03/05 10:54:26;;;;;;;2.67;1.08;;;;;;;4.59;68.85;98491.59;5011696;28;20394;-75
2021/03/05 10:56:53;;;;;;;3.17;0.85;;;;;;;4.13;75.11;98497.59;5009729;28;20068;-73
2021/03/05 10:59:22;;;;;;;2.58;0.90;;;;;;;4.45;76.59;98506.47;5011911;28;20049;-77
2021/03/05 11:01:52;;;;;;;3.13;1.13;;;;;;;6.58;71.48;98499.28;5010421;28;20262;-76
2021/03/05 11:04:24;;;;;;;3.63;1.10;;;;;;;9.12;54.91;98501.53;5010384;28;20089;-74
2021/03/05 11:06:51;;;;;;;1.50;1.00;;;;;;;9.26;49.29;98496.28;5013350;28;20069;-74
2021/03/05 11:09:17;;;;;;;3.58;1.00;;;;;;;11.51;47.57;98504.22;5010852;28;20053;-74
2021/03/05 11:11:44;;;;;;;2.55;0.90;;;;;;;12.28;42.35;98507.06;5011256;28;20042;-75
2021/03/05 11:14:12;;;;;;;5.05;0.90;;;;;;;11.64;43.96;98511.56;5010040;28;20050;-76
2021/03/05 11:16:38;;;;;;;2.60;0.93;;;;;;;11.38;42.71;98515.06;5009336;28;20049;-75
2021/03/05 11:19:05;;;;;;;1.83;1.00;;;;;;;11.66;40.97;98522.94;5003617;28;20045;-76
2021/03/05 11:21:33;;;;;;;2.50;1.20;;;;;;;9.62;43.82;98513.75;5008654;28;20053;-76
2021/03/05 11:24:00;;;;;;;2.80;1.10;;;;;;;7.34;46.35;98521.63;5009481;28;20404;-75
2021/03/05 11:26:26;;;;;;;2.67;1.00;;;;;;;7.13;50.40;98511.94;5020832;28;20128;-75
2021/03/05 11:28:53;;;;;;;2.85;1.27;;;;;;;5.43;53.67;98527.34;5010876;28;20042;-76
2021/03/05 11:31:21;;;;;;;2.05;1.10;;;;;;;7.53;55.39;98522.66;5012109;28;20069;-76
2021/03/05 11:33:50;;;;;;;4.95;1.10;;;;;;;10.71;47.88;98519.13;5012532;28;20057;-75
2021/03/05 11:36:19;;;;;;;4.75;1.13;;;;;;;11.46;42.30;98522.50;5007597;28;20052;-76
2021/03/05 11:38:48;;;;;;;2.35;1.10;;;;;;;12.20;40.93;98529.50;5009619;28;20054;-76